createdAt,value
2023-03-29T00:00:12.631Z,100089.69
2023-03-29T00:02:17.167Z,100086.34
2023-03-29T00:04:20.263Z,100086.84
2023-03-29T00:06:24.913Z,100087.34
2023-03-29T00:08:27.872Z,100093.28
2023-03-29T00:10:32.654Z,100084.72
2023-03-29T00:12:36.197Z,100080.00
2023-03-29T00:14:39.077Z,100086.94
2023-03-29T00:16:42.485Z,100081.91
2023-03-29T00:18:45.794Z,100085.38
2023-03-29T00:20:55.829Z,100083.72
2023-03-29T00:23:00.151Z,100084.66
2023-03-29T00:25:03.280Z,100083.13
2023-03-29T00:27:06.195Z,100077.97
2023-03-29T00:29:09.402Z,100080.81
2023-03-29T00:31:14.242Z,100070.38
2023-03-29T00:33:20.808Z,100076.34
2023-03-29T00:35:23.770Z,100068.28
2023-03-29T00:37:27.235Z,100072.94
2023-03-29T00:39:32.836Z,100077.16
2023-03-29T00:41:36.793Z,100071.25
2023-03-29T00:43:57.586Z,100068.38
2023-03-29T00:46:00.974Z,100074.81
2023-03-29T00:48:07.574Z,100077.63
2023-03-29T00:50:16.754Z,100073.34
2023-03-29T00:52:22.994Z,100075.75
2023-03-29T00:54:28.433Z,100073.00
2023-03-29T00:56:37.385Z,100060.72
2023-03-29T00:58:48.184Z,100067.09
2023-03-29T01:00:58.197Z,100061.63
2023-03-29T01:03:07.426Z,100064.34
2023-03-29T01:05:15.877Z,100057.66
2023-03-29T01:07:22.637Z,100062.06
2023-03-29T01:09:30.664Z,100058.72
2023-03-29T01:11:41.356Z,100053.00
2023-03-29T01:13:50.753Z,100049.50
2023-03-29T01:15:56.845Z,100047.81
2023-03-29T01:18:02.224Z,100046.78
2023-03-29T01:20:14.616Z,100040.81
2023-03-29T01:22:32.437Z,100037.44
2023-03-29T01:24:53.542Z,100038.91
2023-03-29T01:27:03.796Z,100037.22
2023-03-29T01:29:12.075Z,100040.56
2023-03-29T01:31:22.290Z,100039.25
2023-03-29T01:33:29.597Z,100040.72
2023-03-29T01:35:38.787Z,100031.31
2023-03-29T01:37:48.212Z,100035.84
2023-03-29T01:39:52.367Z,100031.06
2023-03-29T01:42:10.481Z,100033.44
2023-03-29T01:44:20.836Z,100024.34
2023-03-29T01:46:31.103Z,100019.53
2023-03-29T01:48:45.241Z,100021.84
2023-03-29T01:50:51.316Z,100026.59
2023-03-29T01:53:00.036Z,100024.03
2023-03-29T01:55:08.635Z,100014.22
2023-03-29T01:57:12.518Z,100022.59
2023-03-29T01:59:22.992Z,100026.44
2023-03-29T02:01:30.362Z,100020.03
2023-03-29T02:03:42.709Z,100032.94
2023-03-29T02:05:46.495Z,100028.25
2023-03-29T02:07:50.860Z,100028.00
2023-03-29T02:09:54.896Z,100021.72
2023-03-29T02:12:01.475Z,100021.19
2023-03-29T02:14:08.394Z,100016.66
2023-03-29T02:16:14.163Z,100013.31
2023-03-29T02:18:19.044Z,100020.63
2023-03-29T02:20:26.998Z,100022.63
2023-03-29T02:22:37.074Z,100025.75
2023-03-29T02:24:42.793Z,100021.69
2023-03-29T02:26:46.395Z,100022.13
2023-03-29T02:28:49.894Z,100021.78
2023-03-29T02:30:57.557Z,100020.72
2023-03-29T02:33:08.960Z,100013.19
2023-03-29T02:35:18.514Z,100019.56
2023-03-29T02:37:24.720Z,100020.72
2023-03-29T02:39:29.993Z,100018.00
2023-03-29T02:41:37.388Z,100021.69
2023-03-29T02:43:42.838Z,100019.38
2023-03-29T02:45:47.557Z,100016.56
2023-03-29T02:47:54.898Z,100022.22
2023-03-29T02:50:01.717Z,100020.00
2023-03-29T02:52:09.577Z,100023.47
2023-03-29T02:54:15.941Z,100015.94
2023-03-29T02:56:19.843Z,100016.34
2023-03-29T02:58:26.842Z,100009.88
2023-03-29T03:00:30.200Z,100013.31
2023-03-29T03:02:33.922Z,100024.84
2023-03-29T03:04:37.000Z,100016.03
2023-03-29T03:06:41.769Z,100013.81
2023-03-29T03:08:46.518Z,100014.88
2023-03-29T03:10:49.996Z,100023.38
2023-03-29T03:12:54.878Z,100013.22
2023-03-29T03:14:58.080Z,100014.06
2023-03-29T03:17:03.893Z,100006.59
2023-03-29T03:19:08.240Z,100001.50
2023-03-29T03:21:11.918Z,100004.00
2023-03-29T03:23:16.387Z,100010.69
2023-03-29T03:25:21.474Z,100017.91
2023-03-29T03:27:25.593Z,100013.44
2023-03-29T03:29:28.752Z,100010.59
2023-03-29T03:31:34.614Z,100009.78
2023-03-29T03:33:50.312Z,100011.22
2023-03-29T03:36:12.596Z,100010.06
2023-03-29T03:38:20.014Z,100005.75
2023-03-29T03:40:30.340Z,99999.72
2023-03-29T03:42:33.339Z,100003.16
2023-03-29T03:44:38.292Z,99999.59
2023-03-29T03:47:02.681Z,100003.16
2023-03-29T03:49:06.077Z,99995.84
2023-03-29T03:51:14.358Z,99991.72
2023-03-29T03:53:17.356Z,100006.91
2023-03-29T03:55:40.061Z,99991.66
2023-03-29T03:57:48.272Z,100002.13
2023-03-29T03:59:54.671Z,100004.41
2023-03-29T04:02:16.661Z,99992.16
2023-03-29T04:04:21.006Z,99997.19
2023-03-29T04:06:53.239Z,100001.78
2023-03-29T04:09:18.503Z,99993.34
2023-03-29T04:11:29.831Z,99994.25
2023-03-29T04:13:32.801Z,99996.69
2023-03-29T04:16:05.580Z,99985.16
2023-03-29T04:18:08.928Z,99993.63
2023-03-29T04:20:19.205Z,99992.28
2023-03-29T04:22:22.282Z,99987.38
2023-03-29T04:24:25.670Z,99998.53
2023-03-29T04:26:50.113Z,99983.06
2023-03-29T04:28:57.997Z,99981.47
2023-03-29T04:31:17.214Z,99981.66
2023-03-29T04:33:40.535Z,99985.75
2023-03-29T04:35:44.353Z,99984.00
2023-03-29T04:37:51.878Z,99975.75
2023-03-29T04:39:57.564Z,99984.63
2023-03-29T04:42:03.347Z,99986.53
2023-03-29T04:44:08.724Z,99983.69
2023-03-29T04:46:11.902Z,99983.38
2023-03-29T04:48:43.038Z,99985.75
2023-03-29T04:50:47.676Z,99985.97
2023-03-29T04:52:53.280Z,99986.31
2023-03-29T04:54:56.997Z,99994.16
2023-03-29T04:57:03.545Z,99984.53
2023-03-29T04:59:29.502Z,99979.00
2023-03-29T05:01:33.148Z,99980.53
2023-03-29T05:03:36.838Z,99994.38
2023-03-29T05:05:48.756Z,99983.69
2023-03-29T05:07:51.835Z,99984.53
2023-03-29T05:10:00.127Z,99989.97
2023-03-29T05:12:05.639Z,99984.84
2023-03-29T05:14:21.956Z,99992.91
2023-03-29T05:16:26.807Z,99988.50
2023-03-29T05:18:33.676Z,99990.69
2023-03-29T05:20:37.928Z,99993.19
2023-03-29T05:22:41.315Z,99992.25
2023-03-29T05:24:47.277Z,99991.44
2023-03-29T05:26:53.244Z,99989.09
2023-03-29T05:28:58.246Z,100000.41
2023-03-29T05:31:02.914Z,99998.56
2023-03-29T05:33:06.868Z,99987.78
2023-03-29T05:35:11.727Z,99994.34
2023-03-29T05:37:15.121Z,99991.94
2023-03-29T05:39:26.237Z,99988.66
2023-03-29T05:41:29.793Z,99983.03
2023-03-29T05:44:01.954Z,99983.56
2023-03-29T05:46:07.660Z,99988.63
2023-03-29T05:48:12.742Z,99984.91
2023-03-29T05:50:19.113Z,99987.47
2023-03-29T05:52:22.122Z,99997.88
2023-03-29T05:54:25.352Z,99991.94
2023-03-29T05:56:28.944Z,99995.94
2023-03-29T05:58:32.049Z,100000.44
2023-03-29T06:00:38.204Z,100001.16
2023-03-29T06:03:06.487Z,99990.78
2023-03-29T06:05:14.268Z,99988.34
2023-03-29T06:07:32.359Z,99989.91
2023-03-29T06:09:55.960Z,99984.59
2023-03-29T06:11:59.796Z,99989.56
2023-03-29T06:14:16.401Z,99982.69
2023-03-29T06:16:27.566Z,99980.34
2023-03-29T06:18:30.588Z,99979.63
2023-03-29T06:20:33.760Z,99970.59
2023-03-29T06:22:42.845Z,99972.75
2023-03-29T06:24:48.241Z,99978.69
2023-03-29T06:27:00.310Z,99982.72
2023-03-29T06:29:04.887Z,99971.97
2023-03-29T06:31:10.535Z,99974.03
2023-03-29T06:33:17.396Z,99975.94
2023-03-29T06:35:48.964Z,99983.78
2023-03-29T06:37:56.440Z,99982.25
2023-03-29T06:40:27.664Z,99974.31
2023-03-29T06:42:30.827Z,99985.84
2023-03-29T06:44:52.040Z,99985.94
2023-03-29T06:46:55.830Z,99985.94
2023-03-29T06:49:01.731Z,99986.91
2023-03-29T06:51:24.078Z,99978.31
2023-03-29T06:53:28.418Z,99978.56
2023-03-29T06:55:36.667Z,99978.34
2023-03-29T06:58:03.019Z,99977.75
2023-03-29T07:00:28.404Z,99983.88
2023-03-29T07:02:52.597Z,99983.25
2023-03-29T07:04:57.117Z,99972.53
2023-03-29T07:07:07.978Z,99978.47
2023-03-29T07:09:13.279Z,99982.69
2023-03-29T07:11:39.564Z,99975.72
2023-03-29T07:13:55.915Z,99980.91
2023-03-29T07:15:59.558Z,99976.72
2023-03-29T07:18:28.670Z,99979.63
2023-03-29T07:20:34.154Z,99980.44
2023-03-29T07:22:45.096Z,99978.63
2023-03-29T07:24:49.616Z,99984.66
2023-03-29T07:27:03.445Z,99982.47
2023-03-29T07:29:08.076Z,99974.78
2023-03-29T07:31:13.682Z,99975.59
2023-03-29T07:33:23.548Z,99971.94
2023-03-29T07:35:33.995Z,99974.09
2023-03-29T07:37:37.884Z,99978.75
2023-03-29T07:39:43.448Z,99978.34
2023-03-29T07:42:12.393Z,99981.47
2023-03-29T07:44:15.442Z,99979.34
2023-03-29T07:46:20.105Z,99981.88
2023-03-29T07:48:23.512Z,99975.09
2023-03-29T07:50:36.232Z,99981.94
2023-03-29T07:52:40.543Z,99972.16
2023-03-29T07:54:43.784Z,99970.56
2023-03-29T07:56:59.126Z,99966.94
2023-03-29T07:59:13.811Z,99971.34
2023-03-29T08:01:20.072Z,99973.09
2023-03-29T08:03:52.554Z,99978.84
2023-03-29T08:06:02.762Z,99970.31
2023-03-29T08:08:06.996Z,99966.13
2023-03-29T08:10:23.036Z,99960.97
2023-03-29T08:12:55.391Z,99966.50
2023-03-29T08:15:09.556Z,99964.03
2023-03-29T08:17:13.321Z,99961.66
2023-03-29T08:19:22.238Z,99963.69
2023-03-29T08:21:38.197Z,99955.63
2023-03-29T08:23:41.490Z,99956.41
2023-03-29T08:25:55.258Z,99947.13
2023-03-29T08:27:58.355Z,99956.34
2023-03-29T08:30:18.500Z,99955.44
2023-03-29T08:32:21.878Z,99951.47
2023-03-29T08:34:25.159Z,99955.16
2023-03-29T08:36:48.679Z,99951.72
2023-03-29T08:39:03.846Z,99951.56
2023-03-29T08:41:21.720Z,99943.59
2023-03-29T08:44:00.316Z,99944.63
2023-03-29T08:46:21.670Z,99949.09
2023-03-29T08:48:29.139Z,99951.84
2023-03-29T08:50:37.316Z,99954.59
2023-03-29T08:52:46.564Z,99949.84
2023-03-29T08:55:31.960Z,99950.81
2023-03-29T08:57:55.275Z,99934.50
2023-03-29T09:00:13.723Z,99933.81
2023-03-29T09:02:22.700Z,99935.38
2023-03-29T09:04:32.007Z,99929.00
2023-03-29T09:06:55.602Z,99927.09
2023-03-29T09:09:04.156Z,99929.88
2023-03-29T09:11:41.217Z,99928.59
2023-03-29T09:13:55.435Z,99923.38
2023-03-29T09:16:07.181Z,99922.81
2023-03-29T09:18:24.285Z,99922.16
2023-03-29T09:20:42.994Z,99927.44
2023-03-29T09:22:55.433Z,99913.53
2023-03-29T09:25:13.698Z,99918.81
2023-03-29T09:27:24.760Z,99914.22
2023-03-29T09:29:55.473Z,99913.09
2023-03-29T09:32:20.792Z,99920.75
2023-03-29T09:34:33.353Z,99917.84
2023-03-29T09:36:48.853Z,99913.59
2023-03-29T09:38:54.961Z,99912.19
2023-03-29T09:41:07.472Z,99908.75
2023-03-29T09:43:14.229Z,99913.06
2023-03-29T09:45:18.315Z,99922.38
2023-03-29T09:47:28.471Z,99913.72
2023-03-29T09:49:43.035Z,99923.06
2023-03-29T09:51:49.629Z,99927.47
2023-03-29T09:53:56.671Z,99914.31
2023-03-29T09:56:16.341Z,99920.22
2023-03-29T09:58:27.879Z,99905.56
2023-03-29T10:00:31.295Z,99906.47
2023-03-29T10:02:34.352Z,99901.44
2023-03-29T10:04:38.867Z,99898.56
2023-03-29T10:06:49.526Z,99904.63
2023-03-29T10:08:59.286Z,99899.31
2023-03-29T10:11:23.696Z,99888.13
2023-03-29T10:13:29.754Z,99886.91
2023-03-29T10:15:33.180Z,99884.94
2023-03-29T10:17:40.920Z,99886.16
2023-03-29T10:19:50.267Z,99879.97
2023-03-29T10:21:54.276Z,99879.97
2023-03-29T10:24:00.042Z,99866.28
2023-03-29T10:26:04.647Z,99869.56
2023-03-29T10:28:13.596Z,99876.03
2023-03-29T10:30:24.565Z,99864.09
2023-03-29T10:32:32.867Z,99863.78
2023-03-29T10:34:35.875Z,99874.66
2023-03-29T10:36:42.519Z,99857.91
2023-03-29T10:38:45.777Z,99848.91
2023-03-29T10:40:50.324Z,99854.38
2023-03-29T10:42:57.958Z,99848.97
2023-03-29T10:45:02.495Z,99845.72
2023-03-29T10:47:15.264Z,99849.72
2023-03-29T10:49:19.995Z,99851.78
2023-03-29T10:51:25.038Z,99835.53
2023-03-29T10:53:29.980Z,99835.41
2023-03-29T10:55:42.196Z,99830.41
2023-03-29T10:57:58.235Z,99826.59
2023-03-29T11:00:08.743Z,99831.16
2023-03-29T11:02:48.263Z,99822.47
2023-03-29T11:04:58.821Z,99816.19
2023-03-29T11:07:23.034Z,99812.34
2023-03-29T11:09:40.139Z,99804.34
2023-03-29T11:12:15.191Z,99796.22
2023-03-29T11:14:30.796Z,99795.47
2023-03-29T11:16:42.393Z,99796.88
2023-03-29T11:19:14.843Z,99796.66
2023-03-29T11:21:27.607Z,99790.94
2023-03-29T11:23:41.944Z,99798.91
2023-03-29T11:25:53.792Z,99784.28
2023-03-29T11:28:05.515Z,99783.47
2023-03-29T11:30:13.670Z,99787.91
2023-03-29T11:32:26.376Z,99781.75
2023-03-29T11:34:35.454Z,99780.88
2023-03-29T11:36:50.843Z,99774.69
2023-03-29T11:39:04.916Z,99773.88
2023-03-29T11:41:16.221Z,99772.94
2023-03-29T11:43:23.193Z,99766.13
2023-03-29T11:45:32.834Z,99755.94
2023-03-29T11:47:40.853Z,99749.97
2023-03-29T11:49:49.598Z,99755.50
2023-03-29T11:51:55.996Z,99745.75
2023-03-29T11:54:04.874Z,99746.41
2023-03-29T11:56:12.442Z,99748.31
2023-03-29T11:58:20.868Z,99741.88
2023-03-29T12:00:27.912Z,99729.97
2023-03-29T12:02:37.054Z,99742.88
2023-03-29T12:04:47.661Z,99733.84
2023-03-29T12:06:57.473Z,99737.13
2023-03-29T12:09:04.289Z,99725.56
2023-03-29T12:11:13.960Z,99731.16
2023-03-29T12:13:22.956Z,99726.22
2023-03-29T12:15:29.972Z,99719.00
2023-03-29T12:17:38.520Z,99727.47
2023-03-29T12:19:49.312Z,99714.81
2023-03-29T12:21:56.495Z,99709.53
2023-03-29T12:24:00.842Z,99714.47
2023-03-29T12:26:17.421Z,99703.53
2023-03-29T12:28:37.075Z,99701.88
2023-03-29T12:30:52.844Z,99705.66
2023-03-29T12:33:18.634Z,99712.44
2023-03-29T12:35:42.609Z,99700.16
2023-03-29T12:38:17.163Z,99702.34
2023-03-29T12:40:42.635Z,99692.44
2023-03-29T12:43:07.851Z,99691.34
2023-03-29T12:45:39.565Z,99682.97
2023-03-29T12:47:45.901Z,99675.91
2023-03-29T12:49:53.798Z,99689.38
2023-03-29T12:52:02.061Z,99678.63
2023-03-29T12:54:10.587Z,99675.00
2023-03-29T12:56:17.160Z,99686.19
2023-03-29T12:58:37.751Z,99675.69
2023-03-29T13:00:45.967Z,99673.22
2023-03-29T13:03:01.164Z,99679.56
2023-03-29T13:05:05.833Z,99665.44
2023-03-29T13:07:15.647Z,99661.16
2023-03-29T13:09:23.857Z,99657.78
2023-03-29T13:11:29.577Z,99662.91
2023-03-29T13:13:37.026Z,99663.66
2023-03-29T13:15:43.417Z,99662.06
2023-03-29T13:17:56.918Z,99661.47
2023-03-29T13:20:21.411Z,99658.06
2023-03-29T13:22:37.447Z,99657.78
2023-03-29T13:24:54.578Z,99657.38
2023-03-29T13:27:07.468Z,99646.50
2023-03-29T13:29:29.396Z,99641.94
2023-03-29T13:31:41.864Z,99633.38
2023-03-29T13:33:55.856Z,99628.22
2023-03-29T13:36:06.180Z,99628.91
2023-03-29T13:38:19.892Z,99619.56
2023-03-29T13:40:32.361Z,99622.38
2023-03-29T13:42:42.192Z,99625.47
2023-03-29T13:44:49.200Z,99619.69
2023-03-29T13:47:03.914Z,99619.47
2023-03-29T13:49:14.930Z,99613.25
2023-03-29T13:51:28.300Z,99614.25
2023-03-29T13:53:37.731Z,99618.06
2023-03-29T13:55:47.645Z,99616.09
2023-03-29T13:57:55.972Z,99608.53
2023-03-29T14:00:02.883Z,99614.34
2023-03-29T14:02:22.302Z,99615.16
2023-03-29T14:04:30.647Z,99614.31
2023-03-29T14:06:36.956Z,99609.38
2023-03-29T14:08:42.328Z,99618.44
2023-03-29T14:10:46.614Z,99607.47
2023-03-29T14:12:50.406Z,99606.88
2023-03-29T14:14:59.782Z,99604.81
2023-03-29T14:17:03.147Z,99602.44
2023-03-29T14:19:13.766Z,99607.78
2023-03-29T14:21:18.588Z,99600.88
2023-03-29T14:23:24.206Z,99594.72
2023-03-29T14:25:30.157Z,99581.59
2023-03-29T14:27:37.434Z,99586.47
2023-03-29T14:29:40.695Z,99582.38
2023-03-29T14:31:43.740Z,99588.00
2023-03-29T14:33:47.280Z,99576.78
2023-03-29T14:35:51.543Z,99571.28
2023-03-29T14:37:54.557Z,99580.44
2023-03-29T14:39:59.800Z,99583.59
2023-03-29T14:42:11.114Z,99583.31
2023-03-29T14:44:14.994Z,99584.66
2023-03-29T14:46:21.981Z,99579.28
2023-03-29T14:48:26.753Z,99578.13
2023-03-29T14:50:31.725Z,99579.78
2023-03-29T14:52:35.527Z,99577.19
2023-03-29T14:54:40.541Z,99569.44
2023-03-29T14:56:43.694Z,99570.09
2023-03-29T14:58:48.455Z,99569.44
2023-03-29T15:00:53.146Z,99564.81
2023-03-29T15:02:59.014Z,99564.22
2023-03-29T15:05:03.810Z,99555.84
2023-03-29T15:07:07.117Z,99551.97
2023-03-29T15:09:17.270Z,99552.72
2023-03-29T15:11:23.574Z,99541.25
2023-03-29T15:13:27.913Z,99548.94
2023-03-29T15:15:35.012Z,99557.00
2023-03-29T15:17:51.146Z,99555.56
2023-03-29T15:19:59.653Z,99552.78
2023-03-29T15:22:10.444Z,99550.69
2023-03-29T15:24:22.996Z,99562.50
2023-03-29T15:26:29.615Z,99555.50
2023-03-29T15:28:35.127Z,99560.28
2023-03-29T15:30:47.766Z,99553.66
2023-03-29T15:32:57.506Z,99548.06
2023-03-29T15:35:01.690Z,99542.00
2023-03-29T15:37:05.389Z,99547.00
2023-03-29T15:39:12.776Z,99544.19
2023-03-29T15:41:16.469Z,99544.31
2023-03-29T15:43:21.926Z,99554.00
2023-03-29T15:45:26.152Z,99547.28
2023-03-29T15:47:31.135Z,99543.94
2023-03-29T15:49:34.073Z,99541.59
2023-03-29T15:51:37.078Z,99542.75
2023-03-29T15:53:40.399Z,99536.25
2023-03-29T15:55:46.420Z,99540.38
2023-03-29T15:57:49.851Z,99530.75
2023-03-29T15:59:52.875Z,99518.75
2023-03-29T16:01:57.942Z,99538.56
2023-03-29T16:04:02.963Z,99524.38
2023-03-29T16:06:07.681Z,99527.72
2023-03-29T16:08:11.937Z,99527.28
2023-03-29T16:10:14.886Z,99531.16
2023-03-29T16:12:17.876Z,99531.25
2023-03-29T16:14:23.465Z,99535.16
2023-03-29T16:16:26.713Z,99535.81
2023-03-29T16:18:29.965Z,99535.84
2023-03-29T16:20:34.414Z,99540.00
2023-03-29T16:22:37.446Z,99538.38
2023-03-29T16:24:40.460Z,99540.63
2023-03-29T16:26:43.934Z,99536.53
2023-03-29T16:28:46.976Z,99538.41
2023-03-29T16:30:49.905Z,99529.31
2023-03-29T16:32:52.943Z,99537.38
2023-03-29T16:34:58.653Z,99533.28
2023-03-29T16:37:03.090Z,99544.81
2023-03-29T16:39:06.047Z,99548.31
2023-03-29T16:41:12.666Z,99549.53
2023-03-29T16:43:16.548Z,99546.06
2023-03-29T16:45:20.388Z,99533.88
2023-03-29T16:47:23.408Z,99539.66
2023-03-29T16:49:26.432Z,99545.66
2023-03-29T16:51:29.249Z,99551.81
2023-03-29T16:53:34.719Z,99541.31
2023-03-29T16:55:38.458Z,99549.13
2023-03-29T16:57:42.453Z,99541.31
2023-03-29T16:59:47.705Z,99544.19
2023-03-29T17:01:50.890Z,99540.69
2023-03-29T17:03:53.861Z,99541.53
2023-03-29T17:05:58.087Z,99541.72
2023-03-29T17:08:01.367Z,99547.09
2023-03-29T17:10:07.110Z,99543.38
2023-03-29T17:12:10.049Z,99543.78
2023-03-29T17:14:13.050Z,99543.97
2023-03-29T17:16:16.280Z,99549.09
2023-03-29T17:18:19.552Z,99542.94
2023-03-29T17:20:22.470Z,99547.66
2023-03-29T17:22:26.070Z,99544.13
2023-03-29T17:24:28.921Z,99553.16
2023-03-29T17:26:33.356Z,99557.28
2023-03-29T17:28:36.384Z,99552.75
2023-03-29T17:30:40.216Z,99560.16
2023-03-29T17:32:43.534Z,99562.44
2023-03-29T17:34:46.680Z,99562.81
2023-03-29T17:36:49.592Z,99554.78
2023-03-29T17:38:52.563Z,99557.81
2023-03-29T17:40:55.876Z,99559.28
2023-03-29T17:43:00.327Z,99547.91
2023-03-29T17:45:03.340Z,99558.19
2023-03-29T17:47:06.438Z,99554.69
2023-03-29T17:49:09.454Z,99563.44
2023-03-29T17:51:12.427Z,99555.84
2023-03-29T17:53:15.740Z,99557.75
2023-03-29T17:55:19.027Z,99556.16
2023-03-29T17:57:22.032Z,99562.75
2023-03-29T17:59:26.663Z,99560.41
2023-03-29T18:01:29.721Z,99548.66
2023-03-29T18:03:33.000Z,99557.72
2023-03-29T18:05:36.192Z,99564.69
2023-03-29T18:07:38.997Z,99559.97
2023-03-29T18:09:43.580Z,99550.75
2023-03-29T18:11:46.360Z,99553.41
2023-03-29T18:13:50.002Z,99562.13
2023-03-29T18:15:56.919Z,99557.56
2023-03-29T18:17:59.726Z,99548.88
2023-03-29T18:20:02.947Z,99556.69
2023-03-29T18:22:05.673Z,99562.13
2023-03-29T18:24:08.460Z,99560.72
2023-03-29T18:26:11.315Z,99562.94
2023-03-29T18:28:14.252Z,99572.22
2023-03-29T18:30:17.160Z,99565.75
2023-03-29T18:32:21.922Z,99561.53
2023-03-29T18:34:24.746Z,99565.09
2023-03-29T18:36:29.354Z,99571.72
2023-03-29T18:38:35.483Z,99558.31
2023-03-29T18:40:39.390Z,99562.69
2023-03-29T18:42:42.187Z,99566.69
2023-03-29T18:44:45.123Z,99555.31
2023-03-29T18:46:48.356Z,99553.84
2023-03-29T18:48:53.688Z,99557.78
2023-03-29T18:50:56.780Z,99556.63
2023-03-29T18:52:59.680Z,99559.94
2023-03-29T18:55:02.870Z,99552.84
2023-03-29T18:57:05.968Z,99554.44
2023-03-29T18:59:08.850Z,99547.63
2023-03-29T19:01:13.092Z,99551.78
2023-03-29T19:03:16.050Z,99543.50
2023-03-29T19:05:20.549Z,99544.72
2023-03-29T19:07:23.720Z,99549.84
2023-03-29T19:09:27.548Z,99540.63
2023-03-29T19:11:30.866Z,99552.78
2023-03-29T19:13:34.572Z,99546.25
2023-03-29T19:15:37.477Z,99553.41
2023-03-29T19:17:40.463Z,99552.41
2023-03-29T19:19:43.714Z,99550.84
2023-03-29T19:21:48.270Z,99548.50
2023-03-29T19:23:53.257Z,99547.19
2023-03-29T19:25:57.694Z,99536.06
2023-03-29T19:28:00.835Z,99531.19
2023-03-29T19:30:04.203Z,99542.50
2023-03-29T19:32:07.264Z,99540.28
2023-03-29T19:34:11.468Z,99535.88
2023-03-29T19:36:14.813Z,99535.88
2023-03-29T19:38:19.639Z,99545.72
2023-03-29T19:40:22.582Z,99539.25
2023-03-29T19:42:25.576Z,99543.94
2023-03-29T19:44:28.425Z,99528.09
2023-03-29T19:46:31.780Z,99537.84
2023-03-29T19:48:34.683Z,99534.72
2023-03-29T19:50:40.702Z,99533.66
2023-03-29T19:52:43.613Z,99536.13
2023-03-29T19:54:48.036Z,99532.69
2023-03-29T19:56:52.847Z,99529.19
2023-03-29T19:58:56.084Z,99534.09
2023-03-29T20:00:58.890Z,99535.16
2023-03-29T20:03:02.607Z,99533.41
2023-03-29T20:05:07.203Z,99528.25
2023-03-29T20:07:10.515Z,99519.50
2023-03-29T20:09:16.323Z,99521.97
2023-03-29T20:11:24.205Z,99528.09
2023-03-29T20:13:37.574Z,99525.22
2023-03-29T20:15:45.233Z,99520.09
2023-03-29T20:17:48.258Z,99524.94
2023-03-29T20:19:51.196Z,99523.22
2023-03-29T20:21:58.426Z,99520.75
2023-03-29T20:24:01.356Z,99517.72
2023-03-29T20:26:04.264Z,99521.84
2023-03-29T20:28:08.832Z,99526.16
2023-03-29T20:30:13.056Z,99515.94
2023-03-29T20:32:16.077Z,99520.25
2023-03-29T20:34:19.039Z,99516.06
2023-03-29T20:36:23.370Z,99531.94
2023-03-29T20:38:26.522Z,99513.84
2023-03-29T20:40:30.366Z,99510.97
2023-03-29T20:42:34.823Z,99514.16
2023-03-29T20:44:39.468Z,99511.69
2023-03-29T20:46:54.659Z,99511.50
2023-03-29T20:48:57.747Z,99510.91
2023-03-29T20:51:03.248Z,99512.63
2023-03-29T20:53:07.606Z,99510.59
2023-03-29T20:55:12.788Z,99512.88
2023-03-29T20:57:17.838Z,99507.53
2023-03-29T20:59:21.274Z,99516.97
2023-03-29T21:01:26.091Z,99508.97
2023-03-29T21:03:29.099Z,99507.16
2023-03-29T21:05:33.740Z,99515.28
2023-03-29T21:07:36.887Z,99499.03
2023-03-29T21:09:40.183Z,99504.66
2023-03-29T21:11:42.986Z,99507.34
2023-03-29T21:13:45.986Z,99500.09
2023-03-29T21:15:49.759Z,99496.34
2023-03-29T21:17:54.439Z,99497.19
2023-03-29T21:19:58.043Z,99493.91
2023-03-29T21:22:01.500Z,99496.41
2023-03-29T21:24:04.605Z,99483.22
2023-03-29T21:26:10.407Z,99480.78
2023-03-29T21:28:13.664Z,99483.00
2023-03-29T21:30:16.781Z,99481.63
2023-03-29T21:32:19.700Z,99488.59
2023-03-29T21:34:24.334Z,99489.41
2023-03-29T21:36:27.394Z,99481.84
2023-03-29T21:38:30.423Z,99483.66
2023-03-29T21:40:36.223Z,99471.38
2023-03-29T21:42:39.473Z,99469.69
2023-03-29T21:44:43.133Z,99470.53
2023-03-29T21:46:46.467Z,99468.91
2023-03-29T21:48:49.602Z,99474.25
2023-03-29T21:50:54.004Z,99468.22
2023-03-29T21:52:56.834Z,99462.94
2023-03-29T21:55:00.005Z,99472.97
2023-03-29T21:57:02.875Z,99471.44
2023-03-29T21:59:06.044Z,99462.53
2023-03-29T22:01:10.489Z,99468.97
2023-03-29T22:03:13.773Z,99463.91
2023-03-29T22:05:16.930Z,99464.56
2023-03-29T22:07:22.982Z,99464.56
2023-03-29T22:09:28.768Z,99461.56
2023-03-29T22:11:32.319Z,99445.03
2023-03-29T22:13:35.140Z,99461.91
2023-03-29T22:15:39.205Z,99450.38
2023-03-29T22:17:43.213Z,99450.06
2023-03-29T22:19:47.879Z,99447.34
2023-03-29T22:21:51.646Z,99451.28
2023-03-29T22:23:57.606Z,99456.41
2023-03-29T22:26:05.424Z,99449.25
2023-03-29T22:28:08.421Z,99451.84
2023-03-29T22:30:12.939Z,99444.88
2023-03-29T22:32:15.999Z,99445.31
2023-03-29T22:34:19.045Z,99443.06
2023-03-29T22:36:23.702Z,99441.03
2023-03-29T22:38:26.465Z,99434.00
2023-03-29T22:40:33.523Z,99435.13
2023-03-29T22:42:36.373Z,99448.00
2023-03-29T22:44:39.243Z,99446.56
2023-03-29T22:46:42.818Z,99442.94
2023-03-29T22:48:46.545Z,99429.16
2023-03-29T22:50:49.436Z,99429.94
2023-03-29T22:52:52.406Z,99433.50
2023-03-29T22:54:55.217Z,99440.63
2023-03-29T22:56:59.674Z,99436.91
2023-03-29T22:59:02.562Z,99439.78
2023-03-29T23:01:06.942Z,99437.59
2023-03-29T23:03:10.843Z,99432.50
2023-03-29T23:05:14.078Z,99433.59
2023-03-29T23:07:16.958Z,99428.84
2023-03-29T23:09:19.942Z,99439.00
2023-03-29T23:11:23.228Z,99435.75
2023-03-29T23:13:29.591Z,99443.31
2023-03-29T23:15:34.225Z,99436.91
2023-03-29T23:17:37.500Z,99434.22
2023-03-29T23:19:40.373Z,99430.94
2023-03-29T23:21:43.293Z,99430.94
2023-03-29T23:23:46.484Z,99419.88
2023-03-29T23:25:51.175Z,99425.88
2023-03-29T23:27:54.882Z,99426.84
2023-03-29T23:29:59.913Z,99429.72
2023-03-29T23:32:02.817Z,99428.91
2023-03-29T23:34:05.793Z,99426.47
2023-03-29T23:36:11.078Z,99429.94
2023-03-29T23:38:14.116Z,99425.25
2023-03-29T23:40:17.235Z,99427.25
2023-03-29T23:42:21.511Z,99426.44
2023-03-29T23:44:24.402Z,99424.63
2023-03-29T23:46:28.898Z,99419.06
2023-03-29T23:48:32.591Z,99416.59
2023-03-29T23:50:35.587Z,99413.09
2023-03-29T23:52:38.432Z,99409.16
2023-03-29T23:54:41.533Z,99415.31
2023-03-29T23:56:44.894Z,99415.69
2023-03-29T23:58:48.013Z,99420.88
